createdAt,value
2023-03-06T00:00:58.580Z,100949.75
2023-03-06T00:06:05.132Z,100955.31
2023-03-06T00:11:08.169Z,100941.00
2023-03-06T00:16:11.671Z,100941.34
2023-03-06T00:21:16.031Z,100935.03
2023-03-06T00:26:19.079Z,100938.19
2023-03-06T00:38:35.667Z,100890.59
2023-03-06T00:43:40.755Z,100917.72
2023-03-06T00:48:45.089Z,100913.00
2023-03-06T00:53:48.478Z,100904.56
2023-03-06T00:58:52.903Z,100910.50
2023-03-06T01:03:55.897Z,100897.34
2023-03-06T01:08:58.934Z,100890.91
2023-03-06T01:14:05.598Z,100882.47
2023-03-06T01:19:08.577Z,100867.97
2023-03-06T01:24:11.511Z,100877.66
2023-03-06T01:29:15.955Z,100871.56
2023-03-06T01:34:19.151Z,100867.50
2023-03-06T01:39:22.438Z,100866.25
2023-03-06T01:51:30.044Z,100861.88
2023-03-06T01:56:33.456Z,100856.69
2023-03-06T02:01:36.737Z,100843.66
2023-03-06T02:06:44.276Z,100843.44
2023-03-06T02:11:47.372Z,100846.69
2023-03-06T02:16:51.557Z,100838.47
2023-03-06T02:21:56.704Z,100840.59
2023-03-06T02:27:04.051Z,100834.53
2023-03-06T02:32:08.038Z,100835.22
2023-03-06T02:37:12.258Z,100829.03
2023-03-06T02:42:22.552Z,100816.19
2023-03-06T02:47:26.031Z,100800.78
2023-03-06T02:52:29.051Z,100801.66
2023-03-06T02:57:33.626Z,100798.97
2023-03-06T03:02:37.004Z,100791.19
2023-03-06T03:07:40.274Z,100785.13
2023-03-06T03:12:46.345Z,100778.16
2023-03-06T03:17:52.905Z,100774.88
2023-03-06T03:22:57.290Z,100764.94
2023-03-06T03:28:01.776Z,100757.19
2023-03-06T03:33:05.899Z,100754.38
2023-03-06T03:38:09.027Z,100760.22
2023-03-06T03:43:13.630Z,100744.53
2023-03-06T03:48:16.783Z,100749.59
2023-03-06T03:53:20.244Z,100745.41
2023-03-06T03:58:25.653Z,100739.44
2023-03-06T04:03:28.938Z,100735.56
2023-03-06T04:08:32.560Z,100724.84
2023-03-06T04:13:37.510Z,100726.06
2023-03-06T04:18:41.903Z,100714.09
2023-03-06T04:23:45.085Z,100711.63
2023-03-06T04:28:49.965Z,100710.72
2023-03-06T04:33:53.426Z,100698.47
2023-03-06T04:38:56.513Z,100705.06
2023-03-06T04:44:01.318Z,100693.91
2023-03-06T04:49:07.474Z,100693.63
2023-03-06T04:54:10.504Z,100678.66
2023-03-06T04:59:14.889Z,100680.00
2023-03-06T05:04:17.881Z,100672.31
2023-03-06T05:09:20.891Z,100662.84
2023-03-06T05:14:25.403Z,100664.44
2023-03-06T05:19:28.493Z,100657.31
2023-03-06T05:24:31.458Z,100663.06
2023-03-06T05:29:35.779Z,100665.84
2023-03-06T05:34:40.237Z,100659.75
2023-03-06T05:39:43.258Z,100658.38
2023-03-06T05:44:47.766Z,100663.06
2023-03-06T05:49:51.178Z,100664.06
2023-03-06T05:54:55.503Z,100661.25
2023-03-06T05:59:59.879Z,100667.97
2023-03-06T06:05:13.185Z,100675.03
2023-03-06T06:10:17.718Z,100671.66
2023-03-06T06:15:22.205Z,100668.47
2023-03-06T06:20:26.213Z,100667.88
2023-03-06T06:25:29.383Z,100668.97
2023-03-06T06:30:34.321Z,100653.72
2023-03-06T06:35:38.055Z,100673.97
2023-03-06T06:40:41.111Z,100679.84
2023-03-06T06:45:45.684Z,100686.81
2023-03-06T06:50:56.611Z,100683.72
2023-03-06T06:56:00.844Z,100668.47
2023-03-06T07:01:08.245Z,100676.25
2023-03-06T07:06:11.568Z,100673.94
2023-03-06T07:11:17.479Z,100681.22
2023-03-06T07:16:21.953Z,100673.63
2023-03-06T07:21:25.071Z,100677.44
2023-03-06T07:26:29.844Z,100682.91
2023-03-06T07:31:34.280Z,100680.22
2023-03-06T07:36:37.306Z,100674.50
2023-03-06T07:41:40.360Z,100672.44
2023-03-06T07:46:50.864Z,100665.03
2023-03-06T07:51:55.793Z,100681.34
2023-03-06T07:56:58.778Z,100673.75
2023-03-06T08:02:03.846Z,100690.50
2023-03-06T08:07:07.165Z,100685.00
2023-03-06T08:12:10.584Z,100678.56
2023-03-06T08:17:17.918Z,100684.59
2023-03-06T08:22:20.993Z,100674.72
2023-03-06T08:27:24.238Z,100681.13
2023-03-06T08:32:29.299Z,100683.66
2023-03-06T08:37:32.284Z,100669.22
2023-03-06T08:42:35.345Z,100685.34
2023-03-06T08:47:39.869Z,100687.25
2023-03-06T08:52:42.988Z,100692.81
2023-03-06T08:57:46.804Z,100685.13
2023-03-06T09:02:51.209Z,100680.22
2023-03-06T09:07:55.407Z,100676.03
2023-03-06T09:12:58.533Z,100673.78
2023-03-06T09:18:05.925Z,100666.91
2023-03-06T09:23:09.897Z,100676.69
2023-03-06T09:28:13.444Z,100679.75
2023-03-06T09:33:18.614Z,100676.38
2023-03-06T09:38:23.231Z,100681.91
2023-03-06T09:43:30.404Z,100672.47
2023-03-06T09:48:43.097Z,100667.38
2023-03-06T09:54:00.193Z,100673.31
2023-03-06T09:59:13.357Z,100679.69
2023-03-06T10:04:33.433Z,100672.28
2023-03-06T10:09:43.244Z,100676.84
2023-03-06T10:15:06.932Z,100677.94
2023-03-06T10:20:18.814Z,100676.25
2023-03-06T10:25:28.142Z,100664.69
2023-03-06T10:30:42.264Z,100660.63
2023-03-06T10:35:50.770Z,100662.69
2023-03-06T10:41:08.202Z,100661.25
2023-03-06T10:46:15.878Z,100655.41
2023-03-06T10:51:23.234Z,100666.16
2023-03-06T10:56:33.837Z,100665.19
2023-03-06T11:01:37.220Z,100654.91
2023-03-06T11:06:42.017Z,100639.31
2023-03-06T11:11:45.173Z,100664.50
2023-03-06T11:16:53.146Z,100652.78
2023-03-06T11:22:05.399Z,100649.09
2023-03-06T11:27:23.821Z,100647.50
2023-03-06T11:32:31.044Z,100632.06
2023-03-06T11:37:47.034Z,100613.91
2023-03-06T11:43:00.404Z,100612.44
2023-03-06T11:48:21.012Z,100606.25
2023-03-06T11:53:33.509Z,100606.69
2023-03-06T11:59:01.923Z,100599.53
2023-03-06T12:04:40.382Z,100593.63
2023-03-06T12:09:49.621Z,100588.34
2023-03-06T12:15:07.980Z,100589.81
2023-03-06T12:20:35.627Z,100575.34
2023-03-06T12:25:45.144Z,100577.22
2023-03-06T12:31:15.415Z,100569.66
2023-03-06T12:36:34.345Z,100551.97
2023-03-06T12:42:00.355Z,100550.28
2023-03-06T12:47:05.201Z,100534.84
2023-03-06T12:52:11.060Z,100536.78
2023-03-06T12:57:16.307Z,100526.31
2023-03-06T13:02:46.567Z,100521.97
2023-03-06T13:08:01.934Z,100512.03
2023-03-06T13:13:30.729Z,100507.72
2023-03-06T13:19:13.161Z,100503.88
2023-03-06T13:24:21.236Z,100499.66
2023-03-06T13:30:04.255Z,100492.22
2023-03-06T13:35:40.570Z,100485.25
2023-03-06T13:40:43.618Z,100476.06
2023-03-06T13:45:49.981Z,100478.59
2023-03-06T13:50:55.581Z,100469.72
2023-03-06T13:56:25.432Z,100462.06
2023-03-06T14:01:43.619Z,100467.00
2023-03-06T14:07:20.803Z,100454.09
2023-03-06T14:12:26.997Z,100447.03
2023-03-06T14:17:36.402Z,100437.72
2023-03-06T14:22:39.534Z,100432.88
2023-03-06T14:27:45.875Z,100436.22
2023-03-06T14:32:52.852Z,100442.06
2023-03-06T14:37:59.956Z,100428.94
2023-03-06T14:43:21.939Z,100432.06
2023-03-06T14:48:28.844Z,100425.75
2023-03-06T14:53:33.865Z,100401.34
2023-03-06T14:58:42.918Z,100398.78
2023-03-06T15:03:50.939Z,100393.59
2023-03-06T15:09:01.758Z,100383.16
2023-03-06T15:14:07.729Z,100388.81
2023-03-06T15:19:21.585Z,100374.69
2023-03-06T15:24:34.224Z,100369.38
2023-03-06T15:29:40.178Z,100378.72
2023-03-06T15:34:44.797Z,100379.16
2023-03-06T15:40:09.392Z,100379.44
2023-03-06T15:45:18.936Z,100361.78
2023-03-06T15:50:25.147Z,100351.44
2023-03-06T15:55:28.369Z,100361.00
2023-03-06T16:00:34.189Z,100353.25
2023-03-06T16:05:38.687Z,100340.19
2023-03-06T16:10:44.355Z,100333.75
2023-03-06T16:15:51.795Z,100332.38
2023-03-06T16:20:56.427Z,100314.00
2023-03-06T16:25:59.436Z,100314.81
2023-03-06T16:31:04.930Z,100314.22
2023-03-06T16:36:14.672Z,100310.19
2023-03-06T16:41:19.539Z,100305.94
2023-03-06T16:46:25.115Z,100304.47
2023-03-06T16:51:40.997Z,100295.94
2023-03-06T16:56:44.643Z,100299.03
2023-03-06T17:01:50.442Z,100291.75
2023-03-06T17:06:55.236Z,100286.78
2023-03-06T17:11:58.351Z,100287.38
2023-03-06T17:17:06.990Z,100251.47
2023-03-06T17:22:20.855Z,100268.19
2023-03-06T17:27:24.642Z,100272.75
2023-03-06T17:32:28.694Z,100287.56
2023-03-06T17:37:33.831Z,100267.69
2023-03-06T17:42:37.322Z,100280.63
2023-03-06T17:47:43.530Z,100271.84
2023-03-06T17:52:47.989Z,100268.34
2023-03-06T17:57:53.025Z,100234.53
2023-03-06T18:02:56.080Z,100244.19
2023-03-06T18:08:04.835Z,100249.47
2023-03-06T18:13:08.339Z,100242.97
2023-03-06T18:18:11.338Z,100234.22
2023-03-06T18:23:16.085Z,100220.09
2023-03-06T18:28:19.578Z,100224.59
2023-03-06T18:33:22.961Z,100210.16
2023-03-06T18:38:27.488Z,100189.94
2023-03-06T18:43:30.739Z,100192.31
2023-03-06T18:48:34.170Z,100187.56
2023-03-06T18:53:39.840Z,100164.56
2023-03-06T18:58:42.919Z,100157.41
2023-03-06T19:03:46.048Z,100146.72
2023-03-06T19:08:50.805Z,100127.38
2023-03-06T19:13:54.054Z,100136.97
2023-03-06T19:18:57.584Z,100128.88
2023-03-06T19:24:03.697Z,100117.50
2023-03-06T19:29:06.794Z,100112.16
2023-03-06T19:34:11.185Z,100107.69
2023-03-06T19:39:15.866Z,100105.97
2023-03-06T19:44:19.043Z,100112.88
2023-03-06T19:49:22.271Z,100096.38
2023-03-06T19:54:27.164Z,100086.88
2023-03-06T19:59:30.972Z,100077.38
2023-03-06T20:04:34.769Z,100059.03
2023-03-06T20:09:39.581Z,100061.22
2023-03-06T20:14:43.573Z,100057.84
2023-03-06T20:19:49.406Z,100028.38
2023-03-06T20:24:54.158Z,100031.19
2023-03-06T20:29:57.251Z,100040.28
2023-03-06T20:35:00.408Z,100019.59
2023-03-06T20:40:08.282Z,100009.50
2023-03-06T20:45:12.095Z,100011.34
2023-03-06T20:50:16.166Z,100008.00
2023-03-06T20:55:20.620Z,99993.13
2023-03-06T21:00:23.730Z,100001.22
2023-03-06T21:05:26.791Z,99993.66
2023-03-06T21:10:34.050Z,99998.88
2023-03-06T21:15:39.626Z,99987.72
2023-03-06T21:20:43.049Z,99983.19
2023-03-06T21:25:52.066Z,99969.97
2023-03-06T21:30:55.409Z,99965.44
2023-03-06T21:35:58.578Z,99964.63
2023-03-06T21:41:10.345Z,99954.34
2023-03-06T21:46:15.066Z,99967.50
2023-03-06T21:51:20.163Z,99956.22
2023-03-06T21:56:28.568Z,99937.56
2023-03-06T22:01:31.986Z,99960.84
2023-03-06T22:06:35.494Z,99954.91
2023-03-06T22:11:40.141Z,99949.84
2023-03-06T22:16:43.435Z,99933.09
2023-03-06T22:21:46.466Z,99938.63
2023-03-06T22:26:51.012Z,99943.13
2023-03-06T22:31:54.156Z,99937.94
2023-03-06T22:37:00.017Z,99918.78
2023-03-06T22:42:05.672Z,99919.38
2023-03-06T22:47:08.679Z,99922.22
2023-03-06T22:52:15.373Z,99900.69
2023-03-06T22:57:19.922Z,99927.41
2023-03-06T23:02:22.910Z,99918.63
2023-03-06T23:07:26.136Z,99921.97
2023-03-06T23:12:38.080Z,99918.22
2023-03-06T23:18:00.108Z,99917.06
2023-03-06T23:23:22.625Z,99914.97
2023-03-06T23:28:27.452Z,99913.88
2023-03-06T23:33:33.691Z,99917.50
2023-03-06T23:38:36.842Z,99912.59
2023-03-06T23:43:41.640Z,99909.16
2023-03-06T23:48:46.226Z,99899.66
2023-03-06T23:53:55.630Z,99901.44
2023-03-06T23:58:59.934Z,99906.56
